Flight Track Log - Related Links

Times and Time Zones

All times are in EDT time to prevent confusion due to time zone crossing. See the AWE433 flight status page for this flight to view local times or setup timezone preferences in your user account.

Time Position Orientation Groundspeed Altitude Reporting Facility
EDT Latitude Longitude Course Direction KTS MPH feet Rate Location/Type
Wed 10:11:04 AM 36.0767 -115.1814 93° East 185 213 3,500  Level Los Angeles Center
Wed 10:11:47 AM 36.0756 -115.2350 269° West 208 239 4,300 1,100 Climbing Los Angeles Center
Wed 10:12:04 AM 36.0778 -115.2547 278° West 217 250 4,600 2,400 Climbing Los Angeles Center
Wed 10:12:47 AM 36.1161 -115.2933 321° Northwest 249 287 6,700 2,656 Climbing Los Angeles Center
Wed 10:13:00 AM 36.1834 -115.0108 90° East  Level FlightAware Approximate
Wed 10:13:05 AM 36.1358 -115.2944 357° North 253 291 7,300  Level Los Angeles Center
Wed 10:13:48 AM 36.1728 -115.2561 40° Northeast 254 292 9,200 2,226 Climbing Los Angeles Center
Wed 10:14:00 AM 36.1901 -114.8361 80° East  Level FlightAware Approximate
Wed 10:14:07 AM 36.1811 -115.2322 67° East 257 296 9,600  Level Los Angeles Center
Wed 10:14:49 AM 36.1956 -115.1608 76° East 306 352 10,600 1,161 Climbing Los Angeles Center
Wed 10:15:00 AM 36.1954 -114.6618 93° East  Level FlightAware Approximate
Wed 10:15:09 AM 36.1969 -115.1311 87° East 311 358 10,800  Level Los Angeles Center
Wed 10:16:00 AM 36.1874 -114.4866 93° East  Level FlightAware Approximate
Wed 10:16:10 AM 36.1981 -115.0094 89° East 346 398 11,900  Level Los Angeles Center
Wed 10:17:12 AM 36.1992 -114.8736 89° East 387 445 13,800 1,742 Climbing Los Angeles Center
Wed 10:18:14 AM 36.1992 -114.7342 90° East 403 464 15,500 1,805 Climbing Los Angeles Center
Wed 10:19:15 AM 36.1969 -114.5575 91° East 426 490 17,500 1,756 Climbing Los Angeles Center
Wed 10:20:17 AM 36.1953 -114.4064 91° East 437 503 19,100 1,500 Climbing Los Angeles Center
Wed 10:21:19 AM 36.1931 -114.2503 91° East 449 517 20,600 1,366 Climbing Los Angeles Center
Wed 10:22:20 AM 36.2108 -114.0914 82° East 462 532 21,900 1,171 Climbing Los Angeles Center
Wed 10:23:22 AM 36.2306 -113.9294 81° East 472 543 23,000 1,065 Climbing Los Angeles Center
Wed 10:24:24 AM 36.2506 -113.7631 81° East 484 557 24,100 926 Climbing Los Angeles Center
Wed 10:25:38 AM 36.2692 -113.5919 82° East 495 570 25,100 1,059 Climbing Los Angeles Center
Wed 10:26:40 AM 36.2975 -113.3486 82° East 509 586 26,500 1,024 Climbing Los Angeles Center
Wed 10:27:41 AM 36.3239 -113.1967 78° East 515 593 27,200 780 Climbing Los Angeles Center
Wed 10:28:43 AM 36.3822 -113.0325 66° East 523 602 28,100 1,016 Climbing Los Angeles Center
Wed 10:29:45 AM 36.4564 -112.8364 65° Northeast 525 604 29,300 1,210 Climbing Los Angeles Center
Wed 10:30:47 AM 36.5156 -112.6728 66° East 524 603 30,600 829 Climbing Los Angeles Center
Wed 10:31:48 AM 36.5753 -112.5108 65° Northeast 520 598 31,000 195 Climbing Los Angeles Center
Wed 10:32:50 AM 36.6339 -112.3500 66° East 514 592 31,000  Level Los Angeles Center
Wed 10:33:52 AM 36.6919 -112.1897 66° East 511 588 31,000  Level Los Angeles Center
Wed 10:34:22 AM 36.7267 -112.0931 66° East 514 592 31,000 391 Level Denver Center
Wed 10:35:24 AM 36.7847 -111.9306 66° East 515 593 31,600 629 Climbing Denver Center
Wed 10:36:26 AM 36.8442 -111.7650 66° East 522 601 32,300 677 Climbing Denver Center
Wed 10:37:28 AM 36.9044 -111.5983 66° East 527 606 33,000 339 Climbing Denver Center
Wed 10:38:30 AM 36.9753 -111.3986 66° East 527 606 33,000  Level Denver Center
Wed 10:39:32 AM 37.0322 -111.2328 67° East 525 604 33,000  Level Denver Center
Wed 10:40:34 AM 37.0922 -111.0639 66° East 531 611 33,000  Level Denver Center
Wed 10:41:36 AM 37.1500 -110.8956 67° East 530 610 33,000  Level Denver Center
Wed 10:42:38 AM 37.2086 -110.7250 67° East 533 613 33,000  Level Denver Center
Wed 10:43:40 AM 37.2683 -110.5547 66° East 534 615 33,000  Level Denver Center
Wed 10:44:42 AM 37.3383 -110.3494 67° East 536 617 33,000  Level Denver Center
Wed 10:45:44 AM 37.3939 -110.1858 67° East 534 615 33,000  Level Denver Center
Wed 10:46:46 AM 37.4556 -110.0006 67° East 532 612 33,000  Level Denver Center
Wed 10:47:48 AM 37.5108 -109.8347 67° East 534 615 33,000  Level Denver Center
Wed 10:48:50 AM 37.5769 -109.6400 67° East 539 620 33,000  Level Denver Center
Wed 10:49:52 AM 37.6308 -109.4725 68° East 538 619 33,000  Level Denver Center
Wed 10:50:54 AM 37.6956 -109.2769 67° East 539 620 33,000  Level Denver Center
Wed 10:51:56 AM 37.7514 -109.1094 67° East 540 621 33,000  Level Denver Center
Wed 10:52:58 AM 37.8056 -108.9081 71° East 542 624 33,000  Level Denver Center
Wed 10:54:01 AM 37.8267 -108.7208 82° East 558 642 33,000  Level Denver Center
Wed 10:55:03 AM 37.8425 -108.5378 84° East 553 636 33,000  Level Denver Center
Wed 10:56:05 AM 37.8614 -108.3214 84° East 552 635 33,000  Level Denver Center
Wed 10:57:07 AM 37.8761 -108.1364 84° East 552 635 33,000  Level Denver Center
Wed 10:58:09 AM 37.8939 -107.9239 84° East 548 631 33,000  Level Denver Center
Wed 10:59:11 AM 37.9086 -107.7372 84° East 554 638 33,000  Level Denver Center
Wed 11:00:13 AM 37.9253 -107.5192 84° East 557 641 33,000  Level Denver Center
Wed 11:01:15 AM 37.9394 -107.3331 84° East 557 641 33,000  Level Denver Center
Wed 11:02:17 AM 37.9558 -107.1189 84° East 557 641 33,000  Level Denver Center
Wed 11:03:19 AM 37.9692 -106.9317 85° East 559 643 33,000  Level Denver Center
Wed 11:04:21 AM 37.9842 -106.7139 85° East 558 642 33,000  Level Denver Center
Wed 11:05:23 AM 37.9972 -106.5264 85° East 559 643 33,000  Level Denver Center
Wed 11:06:25 AM 38.0103 -106.3319 85° East 561 646 33,000  Level Denver Center
Wed 11:07:27 AM 38.0239 -106.1192 85° East 560 644 33,000  Level Denver Center
Wed 11:08:29 AM 38.0364 -105.9219 85° East 559 643 33,000  Level Denver Center
Wed 11:09:31 AM 38.0492 -105.7278 85° East 553 636 33,000  Level Denver Center
Wed 11:10:33 AM 38.0631 -105.4961 86° East 559 643 33,000  Level Denver Center
Wed 11:11:35 AM 38.0744 -105.2986 86° East 558 642 33,000  Level Denver Center
Wed 11:12:37 AM 38.0864 -105.0997 86° East 559 643 33,000  Level Denver Center
Wed 11:13:39 AM 38.0967 -104.9033 86° East 556 640 33,000  Level Denver Center
Wed 11:14:41 AM 38.1083 -104.7056 86° East 558 642 33,000  Level Denver Center
Wed 11:15:43 AM 38.1181 -104.5056 86° East 563 648 33,000  Level Denver Center
Wed 11:16:45 AM 38.1303 -104.2742 86° East 562 647 33,000  Level Denver Center
Wed 11:17:48 AM 38.1403 -104.0744 86° East 563 648 33,000  Level Denver Center
Wed 11:18:50 AM 38.1489 -103.8750 87° East 562 647 33,000  Level Denver Center
Wed 11:19:52 AM 38.1586 -103.6775 86° East 560 644 33,000  Level Denver Center
Wed 11:20:54 AM 38.1667 -103.4781 87° East 562 647 33,000 48 Level Denver Center
Wed 11:21:56 AM 38.1750 -103.2789 87° East 561 646 33,100 387 Climbing Denver Center
Wed 11:22:58 AM 38.1833 -103.0464 87° East 569 655 33,800 726 Climbing Denver Center
Wed 11:24:00 AM 38.1906 -102.8531 87° East 573 659 34,600 581 Climbing Denver Center
Wed 11:25:02 AM 38.2067 -102.6278 85° East 573 659 35,000 194 Climbing Denver Center
Wed 11:26:04 AM 38.2378 -102.4411 78° East 566 651 35,000  Level Denver Center
Wed 11:27:06 AM 38.2683 -102.2497 78° East 573 659 35,000  Level Denver Center
Wed 11:28:08 AM 38.3047 -102.0289 78° East 572 658 35,000  Level Denver Center
Wed 11:29:10 AM 38.3356 -101.8381 78° East 573 659 35,000  Level Denver Center
Wed 11:30:12 AM 38.3703 -101.6192 78° East 566 651 35,000  Level Denver Center
Wed 11:31:14 AM 38.3989 -101.4294 79° East 567 652 35,000  Level Denver Center
Wed 11:32:16 AM 38.4339 -101.2075 79° East 568 654 35,000  Level Denver Center
Wed 11:33:18 AM 38.4622 -101.0172 79° East 568 654 35,000  Level Denver Center
Wed 11:34:20 AM 38.4969 -100.7953 79° East 569 655 35,000  Level Denver Center
Wed 11:35:22 AM 38.5244 -100.6039 80° East 570 656 35,000  Level Denver Center
Wed 11:36:25 AM 38.5525 -100.4114 79° East 572 658 35,000  Level Denver Center
Wed 11:37:27 AM 38.5856 -100.1883 79° East 573 659 35,000  Level Denver Center
Wed 11:38:29 AM 38.6133 -99.9936 80° East 576 663 35,000  Level Denver Center
Wed 11:39:31 AM 38.6447 -99.7686 80° East 575 662 35,000  Level Denver Center
Wed 11:40:33 AM 38.6711 -99.5767 80° East 571 657 35,000  Level Denver Center
Wed 11:41:35 AM 38.7025 -99.3536 80° East 572 658 35,000  Level Denver Center
Wed 11:41:58 AM 38.7089 -99.2983 82° East 568 654 35,000  Level Kansas City Center
Wed 11:43:02 AM 38.7369 -99.0964 80° East 572 658 35,000  Level Kansas City Center
Wed 11:44:03 AM 38.7636 -98.8967 80° East 569 655 35,000  Level Kansas City Center
Wed 11:45:07 AM 38.7956 -98.6556 80° East 570 656 35,000  Level Kansas City Center
Wed 11:46:07 AM 38.8214 -98.4542 81° East 571 657 35,000  Level Kansas City Center
Wed 11:47:11 AM 38.8464 -98.2558 81° East 563 648 35,000  Level Kansas City Center
Wed 11:48:11 AM 38.8717 -98.0547 81° East 566 651 35,000  Level Kansas City Center
Wed 11:49:13 AM 38.8992 -97.8386 81° East 562 647 35,000  Level Kansas City Center
Wed 11:50:14 AM 38.9242 -97.6411 81° East 557 641 35,000  Level Kansas City Center
Wed 11:51:19 AM 38.9467 -97.4625 81° East 556 640 35,000  Level Kansas City Center
Wed 11:52:20 AM 38.9783 -97.2339 80° East 557 641 35,000  Level Kansas City Center
Wed 11:53:21 AM 39.0033 -97.0483 80° East 553 636 35,000  Level Kansas City Center
Wed 11:54:23 AM 39.0333 -96.8303 80° East 553 636 35,000  Level Kansas City Center
Wed 11:55:27 AM 39.0556 -96.6458 81° East 549 632 35,000  Level Kansas City Center
Wed 11:56:26 AM 39.0828 -96.4303 81° East 546 628 35,000  Level Kansas City Center
Wed 11:57:30 AM 39.1056 -96.2456 81° East 547 629 35,000  Level Kansas City Center
Wed 11:58:31 AM 39.1331 -96.0300 81° East 546 628 35,000  Level Kansas City Center
Wed 11:59:34 AM 39.1556 -95.8461 81° East 544 626 35,000  Level Kansas City Center
Wed 12:00:36 PM 39.1819 -95.6294 81° East 547 629 35,000  Level Kansas City Center
Wed 12:01:39 PM 39.2050 -95.4369 81° East 544 626 35,000  Level Kansas City Center
Wed 12:02:40 PM 39.2286 -95.2289 82° East 546 628 35,000  Level Kansas City Center
Wed 12:03:41 PM 39.2483 -95.0597 81° East 544 626 35,000  Level Kansas City Center
Wed 12:04:45 PM 39.2725 -94.8444 82° East 544 626 35,000  Level Kansas City Center
Wed 12:05:46 PM 39.2933 -94.6608 82° East 541 623 35,000  Level Kansas City Center
Wed 12:06:48 PM 39.3236 -94.4461 80° East 543 625 35,000  Level Kansas City Center
Wed 12:07:49 PM 39.3472 -94.2617 81° East 544 626 35,000  Level Kansas City Center
Wed 12:08:52 PM 39.3744 -94.0469 81° East 542 624 35,000  Level Kansas City Center
Wed 12:09:56 PM 39.3972 -93.8631 81° East 543 625 35,000  Level Kansas City Center
Wed 12:10:55 PM 39.4261 -93.6533 80° East 547 629 35,000  Level Kansas City Center
Wed 12:11:59 PM 39.4489 -93.4639 81° East 540 621 35,000  Level Kansas City Center
Wed 12:13:02 PM 39.4711 -93.2739 81° East 540 621 35,000  Level Kansas City Center
Wed 12:14:02 PM 39.4928 -93.0853 81° East 536 617 35,000  Level Kansas City Center
Wed 12:15:06 PM 39.5186 -92.8533 82° East 546 628 35,000  Level Kansas City Center
Wed 12:16:07 PM 39.5406 -92.6631 81° East 545 627 35,000  Level Kansas City Center
Wed 12:17:07 PM 39.5617 -92.4775 82° East 536 617 35,000  Level Kansas City Center
Wed 12:18:11 PM 39.5825 -92.2883 82° East 536 617 35,000  Level Kansas City Center
Wed 12:19:13 PM 39.6031 -92.0981 82° East 538 619 35,000  Level Kansas City Center
Wed 12:20:15 PM 39.6283 -91.8708 82° East 538 619 35,000  Level Kansas City Center
Wed 12:21:16 PM 39.6481 -91.6808 82° East 537 618 35,000  Level Kansas City Center
Wed 12:22:19 PM 39.6669 -91.4914 83° East 536 617 35,000  Level Kansas City Center
Wed 12:23:20 PM 39.6883 -91.2817 82° East 538 619 35,000  Level Kansas City Center
Wed 12:24:21 PM 39.7078 -91.0883 82° East 539 620 35,000  Level Kansas City Center
Wed 12:25:25 PM 39.7272 -90.8936 83° East 542 624 35,000  Level Kansas City Center
Wed 12:26:25 PM 39.7467 -90.6997 83° East 541 623 35,000  Level Kansas City Center
Wed 12:27:29 PM 39.7667 -90.4869 83° East 542 624 35,000  Level Kansas City Center
Wed 12:28:30 PM 39.7839 -90.2908 83° East 545 627 35,000  Level Kansas City Center
Wed 12:29:32 PM 39.8014 -90.0956 83° East 546 628 35,000  Level Kansas City Center
Wed 12:30:33 PM 39.8194 -89.9019 83° East 545 627 35,000  Level Kansas City Center
Wed 12:31:37 PM 39.8394 -89.6667 84° East 546 628 35,000  Level Kansas City Center
Wed 12:32:38 PM 39.8400 -89.4717 90° East 544 626 35,000  Level Kansas City Center
Wed 12:33:39 PM 39.8414 -89.2764 89° East 543 625 35,000  Level Kansas City Center
Wed 12:34:42 PM 39.8419 -89.0814 90° East 543 625 35,000  Level Kansas City Center
Wed 12:35:43 PM 39.8428 -88.8856 90° East 543 625 35,000  Level Kansas City Center
Wed 12:36:46 PM 39.8422 -88.6872 90° East 547 629 35,000  Level Kansas City Center
Wed 12:37:47 PM 39.8428 -88.4522 90° East 544 626 35,000  Level Kansas City Center
Wed 12:38:50 PM 39.8428 -88.2542 90° East 547 629 35,000  Level Kansas City Center
Wed 12:39:33 PM 39.8386 -88.1053 92° East 542 624 35,000  Level Indianapolis Center
Wed 12:40:22 PM 39.8553 -87.9425 82° East 543 625 35,000  Level Indianapolis Center
Wed 12:41:24 PM 39.8792 -87.7469 81° East 544 626 35,000  Level Indianapolis Center
Wed 12:42:25 PM 39.9044 -87.5525 80° East 542 624 35,000 -49 Level Indianapolis Center
Wed 12:43:27 PM 39.9286 -87.3592 81° East 539 620 34,900  Descending Indianapolis Center
Wed 12:44:28 PM 39.9517 -87.1653 81° East 539 620 35,000 49 Climbing Indianapolis Center
Wed 12:45:30 PM 39.9756 -86.9722 81° East 537 618 35,000  Level Indianapolis Center
Wed 12:46:32 PM 39.9989 -86.7786 81° East 535 616 35,000 146 Level Indianapolis Center
Wed 12:47:33 PM 40.0214 -86.5853 81° East 534 615 35,300 439 Climbing Indianapolis Center
Wed 12:48:35 PM 40.0431 -86.3944 82° East 525 604 35,900 673 Climbing Indianapolis Center
Wed 12:49:11 PM 40.0583 -86.2658 81° East 530 610 36,400 490 Climbing Chicago Center
Wed 12:50:13 PM 40.0803 -86.0725 82° East 530 610 36,700 345 Climbing Chicago Center
Wed 12:50:38 PM 40.0869 -86.0056 83° East 536 617 36,900 207 Climbing Indianapolis Center
Wed 12:51:40 PM 40.1122 -85.7767 82° East 541 623 37,000 48 Climbing Indianapolis Center
Wed 12:52:42 PM 40.1333 -85.5814 82° East 539 620 37,000  Level Indianapolis Center
Wed 12:53:19 PM 40.1431 -85.4839 83° East 540 621 37,000  Level Chicago Center
Wed 12:54:21 PM 40.1633 -85.2908 82° East 536 617 37,000  Level Chicago Center
Wed 12:54:45 PM 40.1733 -85.1961 82° East 529 609 37,000  Level Indianapolis Center
Wed 12:55:47 PM 40.1933 -85.0031 82° East 532 612 37,000 -48 Level Indianapolis Center
Wed 12:56:49 PM 40.2128 -84.8175 82° East 529 609 36,900  Descending Indianapolis Center
Wed 12:57:50 PM 40.2231 -84.6250 86° East 525 604 37,000 49 Climbing Indianapolis Center
Wed 12:58:52 PM 40.2303 -84.4347 87° East 521 600 37,000  Level Indianapolis Center
Wed 12:59:54 PM 40.2389 -84.2164 87° East 509 586 37,000 -48 Level Indianapolis Center
Wed 01:00:56 PM 40.2453 -84.0308 87° East 505 581 36,900  Descending Indianapolis Center
Wed 01:01:57 PM 40.2522 -83.8422 87° East 510 587 37,000 49 Climbing Indianapolis Center
Wed 01:02:59 PM 40.2583 -83.6494 88° East 519 597 37,000  Level Indianapolis Center
Wed 01:04:01 PM 40.2650 -83.4536 87° East 529 609 37,000  Level Indianapolis Center
Wed 01:05:02 PM 40.2708 -83.2589 88° East 527 606 37,000 -49 Level Indianapolis Center
Wed 01:06:04 PM 40.2758 -83.0628 88° East 530 610 36,900 -48 Descending Indianapolis Center
Wed 01:07:06 PM 40.2819 -82.8675 88° East 530 610 36,900 49 Level Indianapolis Center
Wed 01:08:07 PM 40.2864 -82.6708 88° East 531 611 37,000 49 Climbing Indianapolis Center
Wed 01:09:09 PM 40.2908 -82.4769 88° East 530 610 37,000  Level Indianapolis Center
Wed 01:10:11 PM 40.2958 -82.2883 88° East 523 602 37,000  Level Indianapolis Center
Wed 01:11:13 PM 40.2997 -82.0961 88° East 523 602 37,000  Level Indianapolis Center
Wed 01:12:14 PM 40.3028 -81.8739 89° East 522 601 37,000  Level Indianapolis Center
Wed 01:13:16 PM 40.3061 -81.6806 89° East 527 606 37,000  Level Indianapolis Center
Wed 01:14:26 PM 40.3119 -81.4517 88° East 515 593 37,000  Level Cleveland Center
Wed 01:16:21 PM 40.3131 -81.1125 90° East 513 590 37,000  Level Indianapolis Center
Wed 01:17:23 PM 40.3156 -80.9244 89° East 513 590 37,000  Level Indianapolis Center
Wed 01:18:25 PM 40.3167 -80.7378 89° East 511 588 37,000  Level Indianapolis Center
Wed 01:19:26 PM 40.3214 -80.5231 88° East 515 593 37,000  Level Cleveland Center
Wed 01:20:26 PM 40.3211 -80.3381 90° East 515 593 37,000 50 Level Cleveland Center
Wed 01:21:26 PM 40.3186 -80.1664 91° East 515 593 37,100 50 Climbing Cleveland Center
Wed 01:22:26 PM 40.3219 -79.9758 89° East 515 593 37,100 -50 Level Cleveland Center
Wed 01:23:26 PM 40.3228 -79.7881 90° East 515 593 37,000 -50 Descending Cleveland Center
Wed 01:24:26 PM 40.3214 -79.6028 91° East 515 593 37,000  Level Cleveland Center
Wed 01:25:26 PM 40.3217 -79.4150 90° East 515 593 37,000  Level Cleveland Center
Wed 01:26:26 PM 40.3175 -79.2242 92° East 515 593 37,000  Level Cleveland Center
Wed 01:27:26 PM 40.3172 -79.0311 90° East 515 593 37,000 -500 Level Cleveland Center
Wed 01:28:26 PM 40.3164 -78.8350 90° East 515 593 36,000 -1,800 Descending Cleveland Center
Wed 01:29:26 PM 40.3156 -78.6469 90° East 520 598 33,400 -2,450 Descending Cleveland Center
Wed 01:31:15 PM 40.3153 -78.3011 90° East 531 611 29,100 -2,272 Descending New York Center
Wed 01:32:15 PM 40.3119 -78.1236 91° East 510 587 27,000 -2,033 Descending New York Center
Wed 01:33:16 PM 40.3131 -77.9331 90° East 484 557 25,000 -1,140 Descending New York Center
Wed 01:34:16 PM 40.3092 -77.7531 92° East 479 551 24,700 -605 Descending New York Center
Wed 01:35:15 PM 40.3114 -77.5736 89° East 489 563 23,800 -900 Descending New York Center
Wed 01:36:16 PM 40.3067 -77.4017 92° East 489 563 22,900 -934 Descending New York Center
Wed 01:37:17 PM 40.3039 -77.2244 91° East 484 557 21,900 -958 Descending New York Center
Wed 01:38:15 PM 40.2969 -77.0467 93° East 484 557 21,000 -966 Descending New York Center
Wed 01:39:15 PM 40.2575 -76.8800 107° East 478 550 20,000 -893 Descending New York Center
Wed 01:40:16 PM 40.2267 -76.7522 108° East 467 537 19,200 -1,300 Descending New York Center
Wed 01:41:15 PM 40.1875 -76.5747 106° East 462 532 17,400 -2,486 Descending New York Center
Wed 01:42:36 PM 40.1342 -76.3478 107° East 448 516 13,400 -2,851 Descending FAA TRACON SMA TRACON (SMA)
Wed 01:42:56 PM 40.1222 -76.3008 108° East 446 513 12,600 -1,950 Descending FAA TRACON SMA TRACON (SMA)
Wed 01:43:16 PM 40.1164 -76.2411 97° East 442 509 12,100 -1,317 Descending FAA TRACON SMA TRACON (SMA)
Wed 01:43:37 PM 40.1150 -76.1947 92° East 414 476 11,700 -1,171 Descending FAA TRACON SMA TRACON (SMA)
Wed 01:43:57 PM 40.1111 -76.1522 97° East 379 436 11,300 -1,231 Descending FAA TRACON SMA TRACON (SMA)
Wed 01:44:16 PM 40.1072 -76.1022 96° East 356 410 10,900 -1,231 Descending FAA TRACON SMA TRACON (SMA)
Wed 01:44:36 PM 40.1044 -76.0642 95° East 346 398 10,500 -900 Descending FAA TRACON SMA TRACON (SMA)
Wed 01:44:56 PM 40.1019 -76.0278 95° East 330 380 10,300 -600 Descending FAA TRACON SMA TRACON (SMA)
Wed 01:45:16 PM 40.0989 -75.9819 95° East 330 380 10,100 -600 Descending FAA TRACON SMA TRACON (SMA)
Wed 01:45:36 PM 40.0961 -75.9486 96° East 329 379 9,900 -750 Descending FAA TRACON SMA TRACON (SMA)
Wed 01:45:56 PM 40.0933 -75.9092 95° East 328 377 9,600 -1,171 Descending FAA TRACON SMA TRACON (SMA)
Wed 01:46:17 PM 40.0903 -75.8631 95° East 327 376 9,100 -1,317 Descending FAA TRACON SMA TRACON (SMA)
Wed 01:46:37 PM 40.0878 -75.8275 95° East 326 375 8,700 -1,077 Descending FAA TRACON SMA TRACON (SMA)
Wed 01:46:56 PM 40.0856 -75.7931 95° East 325 374 8,400 -1,077 Descending FAA TRACON SMA TRACON (SMA)
Wed 01:47:16 PM 40.0817 -75.7494 97° East 321 369 8,000 -900 Descending FAA TRACON SMA TRACON (SMA)
Wed 01:47:36 PM 40.0803 -75.7131 93° East 312 359 7,800 -600 Descending FAA TRACON SMA TRACON (SMA)
Wed 01:47:56 PM 40.0786 -75.6822 94° East 310 357 7,600 -585 Descending FAA TRACON SMA TRACON (SMA)
Wed 01:48:17 PM 40.0772 -75.6353 92° East 310 357 7,400 -585 Descending FAA TRACON SMA TRACON (SMA)
Wed 01:48:37 PM 40.0753 -75.6006 94° East 310 357 7,200 -462 Descending FAA TRACON SMA TRACON (SMA)
Wed 01:48:56 PM 40.0742 -75.5647 92° East 311 358 7,100 -462 Descending FAA TRACON SMA TRACON (SMA)
Wed 01:49:16 PM 40.0717 -75.5317 96° East 310 357 6,900 -600 Descending FAA TRACON SMA TRACON (SMA)
Wed 01:49:36 PM 40.0697 -75.4883 93° East 307 353 6,700 -600 Descending FAA TRACON SMA TRACON (SMA)
Wed 01:49:56 PM 40.0692 -75.4581 91° East 304 350 6,500 -585 Descending FAA TRACON SMA TRACON (SMA)
Wed 01:50:17 PM 40.0661 -75.4133 95° East 299 344 6,300 -439 Descending FAA TRACON SMA TRACON (SMA)
Wed 01:50:37 PM 40.0650 -75.3811 93° East 296 341 6,200 -462 Descending FAA TRACON SMA TRACON (SMA)
Wed 01:50:56 PM 40.0625 -75.3489 96° East 296 341 6,000 -462 Descending FAA TRACON SMA TRACON (SMA)
Wed 01:51:16 PM 40.0611 -75.3142 93° East 295 339 5,900 -150 Descending FAA TRACON SMA TRACON (SMA)
Wed 01:51:36 PM 40.0592 -75.2731 94° East 296 341 5,900  Level FAA TRACON SMA TRACON (SMA)
Wed 01:51:57 PM 40.0572 -75.2422 95° East 295 339 5,900  Level FAA TRACON SMA TRACON (SMA)
Wed 01:52:17 PM 40.0511 -75.2106 104° East 254 292 5,900  Level FAA TRACON SMA TRACON (SMA)
Wed 01:52:36 PM 40.0389 -75.1814 119° Southeast 240 276 5,900  Level FAA TRACON SMA TRACON (SMA)
Wed 01:52:56 PM 40.0278 -75.1594 123° Southeast 229 264 5,900  Level FAA TRACON SMA TRACON (SMA)
Wed 01:53:17 PM 40.0186 -75.1397 121° Southeast 193 222 5,900 -585 Level FAA TRACON SMA TRACON (SMA)
Wed 01:53:37 PM 40.0083 -75.1167 120° Southeast 184 212 5,500 -1,050 Descending FAA TRACON SMA TRACON (SMA)
Wed 01:53:57 PM 40.0003 -75.0994 121° Southeast 195 224 5,200 -1,385 Descending FAA TRACON SMA TRACON (SMA)
Wed 01:54:16 PM 39.9914 -75.0789 119° Southeast 193 222 4,600 -2,000 Descending FAA TRACON SMA TRACON (SMA)
Wed 01:54:36 PM 39.9783 -75.0631 137° Southeast 193 222 3,900 -1,610 Descending FAA TRACON SMA TRACON (SMA)
Wed 01:54:57 PM 39.9658 -75.0533 149° Southeast 180 207 3,500 -1,317 Descending FAA TRACON SMA TRACON (SMA)
Wed 01:55:17 PM 39.9489 -75.0464 163° South 179 206 3,000 -1,300 Descending FAA TRACON SMA TRACON (SMA)
Wed 01:55:57 PM 39.9197 -75.0606 200° South 157 181 2,200 -1,200 Descending FAA TRACON SMA TRACON (SMA)

Login

Don't have an account? Register now (free) for customized features, flight alerts, and more!